createdAt,value
2023-02-11T00:00:51.354Z,98512.09
2023-02-11T00:01:53.157Z,98512.16
2023-02-11T00:02:54.742Z,98512.09
2023-02-11T00:03:57.276Z,98519.59
2023-02-11T00:05:01.486Z,98518.34
2023-02-11T00:06:09.288Z,98521.13
2023-02-11T00:07:10.834Z,98517.59
2023-02-11T00:08:17.002Z,98523.19
2023-02-11T00:09:18.556Z,98517.69
2023-02-11T00:10:20.131Z,98518.44
2023-02-11T00:11:24.074Z,98516.59
2023-02-11T00:12:26.061Z,98520.41
2023-02-11T00:13:27.786Z,98519.19
2023-02-11T00:14:29.393Z,98517.13
2023-02-11T00:15:31.083Z,98518.78
2023-02-11T00:16:32.917Z,98519.66
2023-02-11T00:17:35.746Z,98516.88
2023-02-11T00:18:37.479Z,98522.28
2023-02-11T00:19:39.939Z,98513.59
2023-02-11T00:20:42.092Z,98518.69
2023-02-11T00:21:43.647Z,98524.38
2023-02-11T00:22:45.433Z,98517.69
2023-02-11T00:23:47.892Z,98521.13
2023-02-11T00:24:49.506Z,98525.56
2023-02-11T00:25:51.320Z,98524.78
2023-02-11T00:26:53.138Z,98526.88
2023-02-11T00:27:54.719Z,98517.69
2023-02-11T00:28:57.141Z,98519.88
2023-02-11T00:30:00.551Z,98518.88
2023-02-11T00:31:02.656Z,98516.44
2023-02-11T00:32:05.387Z,98522.56
2023-02-11T00:33:07.357Z,98521.56
2023-02-11T00:34:08.959Z,98520.41
2023-02-11T00:35:10.524Z,98523.03
2023-02-11T00:36:16.387Z,98519.41
2023-02-11T00:37:17.903Z,98516.59
2023-02-11T00:38:19.577Z,98520.25
2023-02-11T00:39:21.127Z,98521.03
2023-02-11T00:40:22.832Z,98529.09
2023-02-11T00:41:26.042Z,98519.00
2023-02-11T00:42:27.633Z,98522.63
2023-02-11T00:43:29.218Z,98518.63
2023-02-11T00:44:30.867Z,98524.25
2023-02-11T00:45:32.579Z,98516.59
2023-02-11T00:46:34.257Z,98522.44
2023-02-11T00:47:36.202Z,98521.00
2023-02-11T00:48:38.017Z,98519.78
2023-02-11T00:49:40.432Z,98520.59
2023-02-11T00:50:42.070Z,98521.41
2023-02-11T00:51:43.632Z,98518.59
2023-02-11T00:52:45.218Z,98519.41
2023-02-11T00:53:46.775Z,98517.19
2023-02-11T00:54:48.324Z,98518.22
2023-02-11T00:55:50.142Z,98517.41
2023-02-11T00:56:51.767Z,98520.44
2023-02-11T00:57:53.435Z,98513.56
2023-02-11T00:58:55.109Z,98515.81
2023-02-11T00:59:56.672Z,98512.75
2023-02-11T01:00:58.358Z,98511.75
2023-02-11T01:01:59.993Z,98514.97
2023-02-11T01:03:01.581Z,98520.63
2023-02-11T01:04:03.211Z,98513.38
2023-02-11T01:05:05.558Z,98508.53
2023-02-11T01:06:08.812Z,98512.16
2023-02-11T01:07:10.450Z,98518.59
2023-02-11T01:08:12.425Z,98514.59
2023-02-11T01:09:13.945Z,98517.00
2023-02-11T01:10:15.949Z,98517.19
2023-02-11T01:11:20.362Z,98516.78
2023-02-11T01:12:22.549Z,98518.63
2023-02-11T01:13:25.147Z,98518.03
2023-02-11T01:14:26.662Z,98513.78
2023-02-11T01:15:28.368Z,98517.00
2023-02-11T01:16:30.058Z,98509.13
2023-02-11T01:17:31.693Z,98517.00
2023-02-11T01:18:33.643Z,98518.00
2023-02-11T01:19:37.415Z,98509.75
2023-02-11T01:20:38.956Z,98509.53
2023-02-11T01:21:40.478Z,98512.97
2023-02-11T01:22:42.450Z,98513.75
2023-02-11T01:23:44.124Z,98507.34
2023-02-11T01:24:45.651Z,98504.09
2023-02-11T01:25:47.648Z,98505.28
2023-02-11T01:26:49.256Z,98503.09
2023-02-11T01:27:50.968Z,98506.50
2023-02-11T01:28:52.546Z,98500.47
2023-02-11T01:29:54.105Z,98503.88
2023-02-11T01:30:56.675Z,98500.84
2023-02-11T01:31:58.365Z,98500.06
2023-02-11T01:32:59.964Z,98506.91
2023-02-11T01:34:01.635Z,98508.72
2023-02-11T01:35:03.826Z,98506.09
2023-02-11T01:36:06.223Z,98506.09
2023-02-11T01:37:07.890Z,98502.66
2023-02-11T01:38:16.557Z,98498.44
2023-02-11T01:39:18.195Z,98503.09
2023-02-11T01:40:19.775Z,98502.50
2023-02-11T01:41:21.503Z,98500.03
2023-02-11T01:42:23.655Z,98504.91
2023-02-11T01:43:26.549Z,98505.31
2023-02-11T01:44:33.476Z,98504.06
2023-02-11T01:45:50.119Z,98504.06
2023-02-11T01:46:52.325Z,98503.25
2023-02-11T01:47:53.924Z,98501.66
2023-02-11T01:49:11.592Z,98495.22
2023-02-11T01:50:13.395Z,98495.63
2023-02-11T01:51:21.064Z,98500.47
2023-02-11T01:52:37.129Z,98496.41
2023-02-11T01:53:57.560Z,98497.44
2023-02-11T01:55:22.065Z,98496.84
2023-02-11T01:56:43.824Z,98500.06
2023-02-11T01:57:51.271Z,98492.56
2023-02-11T01:58:59.311Z,98486.53
2023-02-11T02:00:03.938Z,98495.97
2023-02-11T02:01:08.391Z,98488.72
2023-02-11T02:02:12.732Z,98493.97
2023-02-11T02:03:22.464Z,98485.94
2023-02-11T02:04:31.461Z,98500.47
2023-02-11T02:05:39.241Z,98491.19
2023-02-11T02:06:46.285Z,98488.56
2023-02-11T02:08:15.818Z,98488.75
2023-02-11T02:09:25.573Z,98486.34
2023-02-11T02:10:29.096Z,98477.88
2023-02-11T02:11:31.015Z,98489.97
2023-02-11T02:12:32.641Z,98486.34
2023-02-11T02:13:35.606Z,98486.34
2023-02-11T02:14:41.471Z,98484.34
2023-02-11T02:15:53.372Z,98484.31
2023-02-11T02:16:55.330Z,98491.41
2023-02-11T02:18:24.656Z,98490.38
2023-02-11T02:20:02.372Z,98492.38
2023-02-11T02:21:42.736Z,98495.03
2023-02-11T02:22:55.143Z,98492.19
2023-02-11T02:24:15.302Z,98490.78
2023-02-11T02:25:38.465Z,98498.03
2023-02-11T02:27:10.968Z,98492.38
2023-02-11T02:28:18.555Z,98500.44
2023-02-11T02:29:20.112Z,98495.22
2023-02-11T02:30:27.864Z,98498.44
2023-02-11T02:31:53.455Z,98499.25
2023-02-11T02:33:22.268Z,98497.63
2023-02-11T02:34:56.395Z,98499.22
2023-02-11T02:35:57.905Z,98497.44
2023-02-11T02:37:08.236Z,98500.28
2023-02-11T02:38:34.550Z,98492.38
2023-02-11T02:39:37.467Z,98493.19
2023-02-11T02:40:54.762Z,98496.00
2023-02-11T02:41:57.264Z,98495.59
2023-02-11T02:43:00.894Z,98495.63
2023-02-11T02:44:03.085Z,98495.63
2023-02-11T02:45:05.269Z,98493.00
2023-02-11T02:46:32.543Z,98498.44
2023-02-11T02:47:34.137Z,98496.03
2023-02-11T02:48:35.851Z,98499.06
2023-02-11T02:49:37.385Z,98505.31
2023-02-11T02:50:39.152Z,98499.66
2023-02-11T02:51:55.711Z,98504.31
2023-02-11T02:53:20.530Z,98497.22
2023-02-11T02:54:40.683Z,98499.88
2023-02-11T02:56:00.298Z,98498.66
2023-02-11T02:57:34.906Z,98497.22
2023-02-11T02:58:52.206Z,98497.63
2023-02-11T02:59:59.781Z,98498.44
2023-02-11T03:01:36.850Z,98499.25
2023-02-11T03:02:59.874Z,98508.53
2023-02-11T03:04:22.779Z,98504.91
2023-02-11T03:05:49.745Z,98503.91
2023-02-11T03:07:33.575Z,98505.91
2023-02-11T03:08:51.378Z,98503.88
2023-02-11T03:10:05.727Z,98503.69
2023-02-11T03:11:09.545Z,98499.22
2023-02-11T03:12:13.148Z,98501.25
2023-02-11T03:13:19.482Z,98501.41
2023-02-11T03:14:23.542Z,98499.22
2023-02-11T03:15:28.387Z,98501.63
2023-02-11T03:16:30.871Z,98499.19
2023-02-11T03:17:35.081Z,98503.81
2023-02-11T03:18:41.788Z,98495.03
2023-02-11T03:19:46.466Z,98503.28
2023-02-11T03:20:53.310Z,98506.38
2023-02-11T03:21:56.831Z,98506.00
2023-02-11T03:23:12.657Z,98501.81
2023-02-11T03:24:22.224Z,98506.88
2023-02-11T03:25:30.266Z,98506.84
2023-02-11T03:26:38.846Z,98507.66
2023-02-11T03:28:01.491Z,98502.81
2023-02-11T03:29:09.574Z,98515.47
2023-02-11T03:30:26.793Z,98506.38
2023-02-11T03:31:35.695Z,98508.38
2023-02-11T03:32:42.026Z,98503.38
2023-02-11T03:34:00.114Z,98502.81
2023-02-11T03:35:23.227Z,98498.00
2023-02-11T03:36:34.375Z,98503.59
2023-02-11T03:37:45.384Z,98509.59
2023-02-11T03:38:55.693Z,98502.38
2023-02-11T03:40:05.343Z,98502.75
2023-02-11T03:41:10.009Z,98496.50
2023-02-11T03:42:14.662Z,98499.34
2023-02-11T03:43:31.976Z,98495.91
2023-02-11T03:44:40.036Z,98496.31
2023-02-11T03:45:41.709Z,98501.41
2023-02-11T03:46:47.992Z,98502.81
2023-02-11T03:47:56.838Z,98498.41
2023-02-11T03:49:09.710Z,98503.06
2023-02-11T03:50:14.778Z,98494.59
2023-02-11T03:51:17.278Z,98498.00
2023-02-11T03:52:21.592Z,98498.03
2023-02-11T03:53:23.754Z,98497.03
2023-02-11T03:54:30.224Z,98497.84
2023-02-11T03:55:37.003Z,98499.25
2023-02-11T03:56:52.143Z,98498.88
2023-02-11T03:57:54.099Z,98495.81
2023-02-11T03:58:56.012Z,98494.41
2023-02-11T03:59:59.413Z,98496.59
2023-02-11T04:01:02.789Z,98502.19
2023-02-11T04:02:04.388Z,98502.41
2023-02-11T04:03:06.684Z,98502.00
2023-02-11T04:04:08.241Z,98504.59
2023-02-11T04:05:15.274Z,98504.22
2023-02-11T04:06:16.861Z,98500.56
2023-02-11T04:07:18.572Z,98498.72
2023-02-11T04:08:20.926Z,98500.53
2023-02-11T04:09:22.499Z,98500.34
2023-02-11T04:10:24.100Z,98496.28
2023-02-11T04:11:25.651Z,98497.25
2023-02-11T04:12:27.199Z,98497.44
2023-02-11T04:13:28.772Z,98499.88
2023-02-11T04:14:30.325Z,98492.63
2023-02-11T04:15:32.377Z,98497.00
2023-02-11T04:16:33.982Z,98502.47
2023-02-11T04:17:35.633Z,98501.03
2023-02-11T04:18:37.173Z,98496.97
2023-02-11T04:19:39.091Z,98497.38
2023-02-11T04:20:40.669Z,98497.41
2023-02-11T04:21:42.171Z,98498.88
2023-02-11T04:22:43.728Z,98503.50
2023-02-11T04:23:45.249Z,98495.84
2023-02-11T04:24:46.918Z,98502.31
2023-02-11T04:25:51.538Z,98499.53
2023-02-11T04:26:53.565Z,98504.19
2023-02-11T04:27:55.236Z,98509.25
2023-02-11T04:28:56.806Z,98502.41
2023-02-11T04:29:58.494Z,98502.19
2023-02-11T04:31:00.164Z,98499.00
2023-02-11T04:32:01.779Z,98499.66
2023-02-11T04:33:03.526Z,98503.66
2023-02-11T04:34:05.190Z,98503.44
2023-02-11T04:35:07.050Z,98502.00
2023-02-11T04:36:08.761Z,98498.34
2023-02-11T04:37:10.589Z,98499.09
2023-02-11T04:38:12.182Z,98502.09
2023-02-11T04:39:13.862Z,98499.91
2023-02-11T04:40:15.509Z,98502.75
2023-02-11T04:41:17.133Z,98497.34
2023-02-11T04:42:18.722Z,98497.94
2023-02-11T04:43:20.322Z,98498.72
2023-02-11T04:44:21.919Z,98501.34
2023-02-11T04:45:23.468Z,98497.94
2023-02-11T04:46:25.306Z,98491.50
2023-02-11T04:47:26.899Z,98498.41
2023-02-11T04:48:28.452Z,98490.34
2023-02-11T04:49:29.995Z,98499.03
2023-02-11T04:50:31.581Z,98495.22
2023-02-11T04:51:33.155Z,98495.84
2023-02-11T04:52:34.705Z,98497.41
2023-02-11T04:53:36.245Z,98494.59
2023-02-11T04:54:37.842Z,98491.97
2023-02-11T04:55:39.397Z,98494.81
2023-02-11T04:56:40.955Z,98495.00
2023-02-11T04:57:42.466Z,98498.44
2023-02-11T04:58:44.005Z,98493.41
2023-02-11T04:59:45.549Z,98492.00
2023-02-11T05:00:47.504Z,98492.19
2023-02-11T05:01:49.989Z,98496.44
2023-02-11T05:02:51.552Z,98492.41
2023-02-11T05:03:53.157Z,98492.78
2023-02-11T05:04:54.733Z,98496.44
2023-02-11T05:05:56.367Z,98493.00
2023-02-11T05:06:58.811Z,98493.78
2023-02-11T05:08:00.405Z,98494.41
2023-02-11T05:09:02.001Z,98496.81
2023-02-11T05:10:04.188Z,98494.41
2023-02-11T05:11:06.253Z,98498.66
2023-02-11T05:12:08.821Z,98497.63
2023-02-11T05:13:10.338Z,98502.47
2023-02-11T05:14:11.970Z,98497.63
2023-02-11T05:15:13.512Z,98498.03
2023-02-11T05:16:16.304Z,98506.09
2023-02-11T05:17:18.618Z,98506.28
2023-02-11T05:18:20.203Z,98500.81
2023-02-11T05:19:21.772Z,98499.84
2023-02-11T05:20:23.620Z,98502.84
2023-02-11T05:21:25.256Z,98503.25
2023-02-11T05:22:26.844Z,98503.66
2023-02-11T05:23:28.402Z,98513.69
2023-02-11T05:24:33.339Z,98509.03
2023-02-11T05:25:35.131Z,98509.19
2023-02-11T05:26:36.695Z,98506.41
2023-02-11T05:27:38.413Z,98508.63
2023-02-11T05:28:40.148Z,98506.19
2023-02-11T05:29:41.652Z,98507.44
2023-02-11T05:30:43.337Z,98508.91
2023-02-11T05:31:44.914Z,98510.13
2023-02-11T05:32:46.491Z,98508.13
2023-02-11T05:33:48.044Z,98508.94
2023-02-11T05:34:49.594Z,98506.09
2023-02-11T05:35:51.777Z,98503.69
2023-02-11T05:36:53.534Z,98507.94
2023-02-11T05:37:55.121Z,98506.50
2023-02-11T05:38:56.700Z,98508.53
2023-02-11T05:39:58.246Z,98508.91
2023-02-11T05:41:00.060Z,98507.31
2023-02-11T05:42:01.639Z,98512.56
2023-02-11T05:43:03.423Z,98513.75
2023-02-11T05:44:04.973Z,98517.41
2023-02-11T05:45:07.002Z,98516.19
2023-02-11T05:46:08.822Z,98515.78
2023-02-11T05:47:10.475Z,98523.44
2023-02-11T05:48:12.061Z,98519.00
2023-02-11T05:49:13.586Z,98516.00
2023-02-11T05:50:15.468Z,98521.44
2023-02-11T05:51:17.004Z,98528.72
2023-02-11T05:52:18.543Z,98532.13
2023-02-11T05:53:20.087Z,98524.25
2023-02-11T05:54:21.663Z,98518.59
2023-02-11T05:55:23.403Z,98517.41
2023-02-11T05:56:24.966Z,98519.03
2023-02-11T05:57:26.495Z,98514.78
2023-02-11T05:58:28.355Z,98524.69
2023-02-11T05:59:30.102Z,98526.28
2023-02-11T06:00:31.635Z,98528.09
2023-02-11T06:01:33.229Z,98520.25
2023-02-11T06:02:34.874Z,98524.03
2023-02-11T06:03:36.505Z,98526.91
2023-02-11T06:04:38.252Z,98524.47
2023-02-11T06:05:39.862Z,98528.91
2023-02-11T06:06:41.417Z,98532.09
2023-02-11T06:07:43.217Z,98523.00
2023-02-11T06:08:44.775Z,98528.44
2023-02-11T06:09:46.392Z,98534.91
2023-02-11T06:10:47.963Z,98526.84
2023-02-11T06:11:49.502Z,98537.16
2023-02-11T06:12:51.086Z,98528.88
2023-02-11T06:13:52.721Z,98532.34
2023-02-11T06:14:54.259Z,98531.94
2023-02-11T06:15:57.921Z,98534.38
2023-02-11T06:16:59.620Z,98530.31
2023-02-11T06:18:01.241Z,98531.09
2023-02-11T06:19:02.915Z,98535.97
2023-02-11T06:20:07.674Z,98529.69
2023-02-11T06:21:11.439Z,98529.09
2023-02-11T06:22:13.047Z,98529.50
2023-02-11T06:23:14.704Z,98523.44
2023-02-11T06:24:21.645Z,98527.28
2023-02-11T06:25:30.241Z,98525.44
2023-02-11T06:26:32.771Z,98527.44
2023-02-11T06:27:34.304Z,98531.09
2023-02-11T06:28:36.156Z,98529.91
2023-02-11T06:29:37.802Z,98529.09
2023-02-11T06:30:39.368Z,98532.53
2023-02-11T06:31:41.147Z,98535.56
2023-02-11T06:32:45.213Z,98537.78
2023-02-11T06:33:47.382Z,98531.13
2023-02-11T06:34:48.969Z,98529.09
2023-02-11T06:35:51.159Z,98532.31
2023-02-11T06:36:52.890Z,98530.66
2023-02-11T06:37:54.637Z,98531.84
2023-02-11T06:38:56.175Z,98528.41
2023-02-11T06:39:57.814Z,98525.00
2023-02-11T06:40:59.371Z,98521.19
2023-02-11T06:42:00.899Z,98529.69
2023-02-11T06:43:02.537Z,98529.09
2023-02-11T06:44:04.401Z,98528.31
2023-02-11T06:45:08.980Z,98527.09
2023-02-11T06:46:10.618Z,98528.28
2023-02-11T06:47:13.032Z,98532.31
2023-02-11T06:48:14.770Z,98536.31
2023-02-11T06:49:16.766Z,98529.63
2023-02-11T06:50:18.373Z,98527.38
2023-02-11T06:51:19.898Z,98526.94
2023-02-11T06:52:21.523Z,98530.91
2023-02-11T06:53:23.130Z,98530.63
2023-02-11T06:54:24.738Z,98527.94
2023-02-11T06:55:26.530Z,98535.75
2023-02-11T06:56:28.192Z,98532.47
2023-02-11T06:57:31.007Z,98536.44
2023-02-11T06:58:33.350Z,98533.38
2023-02-11T06:59:34.951Z,98534.56
2023-02-11T07:00:37.453Z,98531.03
2023-02-11T07:01:39.021Z,98530.31
2023-02-11T07:02:40.622Z,98528.97
2023-02-11T07:03:44.675Z,98531.47
2023-02-11T07:04:46.303Z,98527.31
2023-02-11T07:05:47.937Z,98523.81
2023-02-11T07:06:49.532Z,98529.44
2023-02-11T07:07:51.079Z,98529.59
2023-02-11T07:08:54.334Z,98529.25
2023-02-11T07:09:56.030Z,98525.13
2023-02-11T07:10:57.568Z,98518.47
2023-02-11T07:11:59.496Z,98521.22
2023-02-11T07:13:01.097Z,98520.34
2023-02-11T07:14:05.832Z,98514.97
2023-02-11T07:15:07.750Z,98521.25
2023-02-11T07:16:12.636Z,98517.78
2023-02-11T07:17:14.701Z,98512.41
2023-02-11T07:18:16.475Z,98517.97
2023-02-11T07:19:18.031Z,98514.16
2023-02-11T07:20:19.631Z,98515.38
2023-02-11T07:21:24.343Z,98510.50
2023-02-11T07:22:25.925Z,98510.38
2023-02-11T07:23:28.361Z,98508.47
2023-02-11T07:24:29.872Z,98513.16
2023-02-11T07:25:31.493Z,98505.25
2023-02-11T07:26:33.042Z,98511.81
2023-02-11T07:27:34.684Z,98512.84
2023-02-11T07:28:37.084Z,98512.47
2023-02-11T07:29:38.713Z,98512.94
2023-02-11T07:30:40.295Z,98508.69
2023-02-11T07:31:41.962Z,98510.91
2023-02-11T07:32:43.598Z,98512.31
2023-02-11T07:33:45.965Z,98516.25
2023-02-11T07:34:48.620Z,98511.28
2023-02-11T07:35:50.423Z,98502.94
2023-02-11T07:36:52.127Z,98508.00
2023-02-11T07:37:53.648Z,98508.34
2023-02-11T07:38:55.283Z,98507.53
2023-02-11T07:39:56.854Z,98510.47
2023-02-11T07:41:02.946Z,98510.00
2023-02-11T07:42:04.808Z,98509.09
2023-02-11T07:43:06.396Z,98506.13
2023-02-11T07:44:08.013Z,98511.69
2023-02-11T07:45:09.730Z,98511.88
2023-02-11T07:46:15.318Z,98510.50
2023-02-11T07:47:16.980Z,98507.88
2023-02-11T07:48:18.578Z,98503.16
2023-02-11T07:49:20.107Z,98509.69
2023-02-11T07:50:21.684Z,98507.16
2023-02-11T07:51:29.117Z,98509.56
2023-02-11T07:52:31.258Z,98511.19
2023-02-11T07:53:32.840Z,98507.53
2023-02-11T07:54:34.520Z,98509.94
2023-02-11T07:55:36.080Z,98506.94
2023-02-11T07:56:37.649Z,98509.06
2023-02-11T07:57:39.207Z,98507.63
2023-02-11T07:58:43.159Z,98510.13
2023-02-11T07:59:44.758Z,98511.53
2023-02-11T08:00:46.496Z,98512.81
2023-02-11T08:01:48.191Z,98510.06
2023-02-11T08:02:49.875Z,98508.75
2023-02-11T08:03:52.168Z,98505.63
2023-02-11T08:04:53.727Z,98505.56
2023-02-11T08:05:55.330Z,98504.28
2023-02-11T08:06:59.111Z,98504.72
2023-02-11T08:08:00.817Z,98498.53
2023-02-11T08:09:07.625Z,98500.59
2023-02-11T08:10:09.313Z,98499.38
2023-02-11T08:11:14.376Z,98498.81
2023-02-11T08:12:15.955Z,98493.53
2023-02-11T08:13:17.490Z,98496.50
2023-02-11T08:14:20.447Z,98497.53
2023-02-11T08:15:22.075Z,98491.09
2023-02-11T08:16:26.368Z,98488.66
2023-02-11T08:17:27.974Z,98481.22
2023-02-11T08:18:30.607Z,98487.34
2023-02-11T08:19:34.871Z,98481.50
2023-02-11T08:20:36.711Z,98487.81
2023-02-11T08:21:39.501Z,98483.28
2023-02-11T08:22:41.202Z,98476.75
2023-02-11T08:23:44.389Z,98469.59
2023-02-11T08:24:45.951Z,98476.00
2023-02-11T08:25:47.478Z,98466.53
2023-02-11T08:26:49.577Z,98460.13
2023-02-11T08:27:51.147Z,98468.66
2023-02-11T08:28:54.342Z,98474.44
2023-02-11T08:29:56.163Z,98463.44
2023-02-11T08:30:58.044Z,98465.47
2023-02-11T08:31:59.827Z,98464.41
2023-02-11T08:33:01.590Z,98461.03
2023-02-11T08:34:03.586Z,98457.94
2023-02-11T08:35:07.900Z,98456.38
2023-02-11T08:36:10.822Z,98460.38
2023-02-11T08:37:12.408Z,98463.09
2023-02-11T08:38:13.932Z,98452.06
2023-02-11T08:39:20.493Z,98459.16
2023-02-11T08:40:22.817Z,98457.94
2023-02-11T08:41:24.505Z,98458.84
2023-02-11T08:42:26.082Z,98458.22
2023-02-11T08:43:27.618Z,98461.91
2023-02-11T08:44:30.061Z,98458.78
2023-02-11T08:45:32.385Z,98450.97
2023-02-11T08:46:34.036Z,98457.84
2023-02-11T08:47:36.479Z,98458.84
2023-02-11T08:48:38.198Z,98452.94
2023-02-11T08:49:41.865Z,98444.53
2023-02-11T08:50:43.474Z,98448.84
2023-02-11T08:51:46.031Z,98450.16
2023-02-11T08:52:47.595Z,98449.78
2023-02-11T08:53:49.283Z,98461.91
2023-02-11T08:54:51.199Z,98457.66
2023-02-11T08:55:55.495Z,98450.63
2023-02-11T08:56:58.290Z,98456.19
2023-02-11T08:57:59.921Z,98449.53
2023-02-11T08:59:01.920Z,98452.97
2023-02-11T09:00:04.684Z,98443.38
2023-02-11T09:01:32.619Z,98442.44
2023-02-11T09:02:34.177Z,98445.88
2023-02-11T09:03:35.771Z,98440.66
2023-02-11T09:04:37.320Z,98437.00
2023-02-11T09:05:47.259Z,98428.81
2023-02-11T09:06:49.060Z,98430.22
2023-02-11T09:07:50.663Z,98431.53
2023-02-11T09:08:54.774Z,98426.94
2023-02-11T09:09:56.288Z,98434.19
2023-02-11T09:10:57.910Z,98426.94
2023-02-11T09:12:01.311Z,98424.31
2023-02-11T09:13:03.150Z,98424.69
2023-02-11T09:14:04.817Z,98431.13
2023-02-11T09:15:06.774Z,98427.53
2023-02-11T09:16:08.698Z,98431.97
2023-02-11T09:17:10.342Z,98425.19
2023-02-11T09:18:12.010Z,98422.66
2023-02-11T09:19:13.905Z,98421.19
2023-02-11T09:20:15.600Z,98423.88
2023-02-11T09:21:18.385Z,98422.25
2023-02-11T09:22:19.944Z,98421.19
2023-02-11T09:23:21.492Z,98415.41
2023-02-11T09:24:23.067Z,98416.75
2023-02-11T09:25:25.685Z,98419.69
2023-02-11T09:26:32.541Z,98417.84
2023-02-11T09:27:34.114Z,98422.41
2023-02-11T09:28:35.920Z,98411.31
2023-02-11T09:29:37.594Z,98412.03
2023-02-11T09:30:39.516Z,98409.16
2023-02-11T09:31:41.329Z,98413.38
2023-02-11T09:32:42.999Z,98412.00
2023-02-11T09:33:49.536Z,98406.97
2023-02-11T09:34:51.151Z,98400.28
2023-02-11T09:35:52.706Z,98395.28
2023-02-11T09:36:54.366Z,98403.63
2023-02-11T09:37:56.062Z,98410.88
2023-02-11T09:38:59.810Z,98401.66
2023-02-11T09:40:01.421Z,98394.41
2023-02-11T09:41:08.086Z,98394.69
2023-02-11T09:42:45.206Z,98391.94
2023-02-11T09:43:48.277Z,98393.28
2023-02-11T09:44:50.204Z,98392.31
2023-02-11T09:45:55.887Z,98392.38
2023-02-11T09:47:01.519Z,98381.31
2023-02-11T09:48:12.594Z,98385.41
2023-02-11T09:49:22.640Z,98386.72
2023-02-11T09:50:32.580Z,98380.16
2023-02-11T09:51:48.260Z,98378.53
2023-02-11T09:53:14.702Z,98376.09
2023-02-11T09:54:53.849Z,98371.78
2023-02-11T09:55:59.723Z,98368.72
2023-02-11T09:57:02.105Z,98366.81
2023-02-11T09:58:11.544Z,98360.28
2023-02-11T09:59:17.667Z,98361.66
2023-02-11T10:00:25.106Z,98353.72
2023-02-11T10:01:39.906Z,98351.41
2023-02-11T10:03:15.819Z,98351.25
2023-02-11T10:04:31.786Z,98349.00
2023-02-11T10:05:36.161Z,98344.19
2023-02-11T10:06:56.444Z,98344.16
2023-02-11T10:08:09.880Z,98335.22
2023-02-11T10:09:20.465Z,98335.19
2023-02-11T10:10:40.592Z,98333.88
2023-02-11T10:12:12.626Z,98329.41
2023-02-11T10:14:07.610Z,98331.41
2023-02-11T10:15:17.936Z,98326.03
2023-02-11T10:16:34.072Z,98330.03
2023-02-11T10:17:50.775Z,98321.06
2023-02-11T10:19:27.278Z,98317.56
2023-02-11T10:20:55.674Z,98314.34
2023-02-11T10:22:06.126Z,98313.03
2023-02-11T10:23:17.191Z,98313.78
2023-02-11T10:24:20.398Z,98304.22
2023-02-11T10:25:46.515Z,98301.34
2023-02-11T10:26:49.080Z,98299.75
2023-02-11T10:27:52.362Z,98304.56
2023-02-11T10:28:55.710Z,98300.34
2023-02-11T10:30:08.533Z,98299.53
2023-02-11T10:31:18.108Z,98289.16
2023-02-11T10:33:04.636Z,98293.22
2023-02-11T10:34:10.481Z,98281.59
2023-02-11T10:35:22.068Z,98279.22
2023-02-11T10:36:28.148Z,98287.66
2023-02-11T10:37:30.775Z,98283.88
2023-02-11T10:38:33.859Z,98279.56
2023-02-11T10:39:35.370Z,98272.00
2023-02-11T10:40:37.124Z,98266.72
2023-02-11T10:41:51.244Z,98263.63
2023-02-11T10:42:56.226Z,98261.50
2023-02-11T10:44:00.458Z,98262.38
2023-02-11T10:45:06.297Z,98254.22
2023-02-11T10:46:16.398Z,98255.88
2023-02-11T10:47:22.173Z,98256.41
2023-02-11T10:48:44.928Z,98251.66
2023-02-11T10:49:47.395Z,98249.50
2023-02-11T10:50:49.065Z,98247.91
2023-02-11T10:52:08.223Z,98246.06
2023-02-11T10:53:17.380Z,98236.22
2023-02-11T10:54:24.386Z,98239.53
2023-02-11T10:55:27.880Z,98236.09
2023-02-11T10:56:44.503Z,98237.50
2023-02-11T10:57:59.344Z,98229.03
2023-02-11T10:59:05.457Z,98228.28
2023-02-11T11:00:23.061Z,98225.66
2023-02-11T11:01:39.462Z,98223.34
2023-02-11T11:02:44.549Z,98215.34
2023-02-11T11:03:50.125Z,98219.28
2023-02-11T11:04:57.633Z,98216.00
2023-02-11T11:06:00.935Z,98214.91
2023-02-11T11:07:20.100Z,98212.03
2023-02-11T11:08:22.128Z,98206.25
2023-02-11T11:09:43.338Z,98210.75
2023-02-11T11:10:47.843Z,98204.34
2023-02-11T11:11:53.912Z,98200.66
2023-02-11T11:12:55.578Z,98194.84
2023-02-11T11:14:00.260Z,98194.31
2023-02-11T11:15:11.266Z,98190.66
2023-02-11T11:16:12.836Z,98185.09
2023-02-11T11:17:19.026Z,98184.81
2023-02-11T11:18:23.304Z,98176.09
2023-02-11T11:19:25.888Z,98174.00
2023-02-11T11:20:29.804Z,98175.91
2023-02-11T11:21:41.634Z,98169.53
2023-02-11T11:22:43.934Z,98170.34
2023-02-11T11:23:52.767Z,98162.13
2023-02-11T11:24:55.942Z,98159.47
2023-02-11T11:26:05.088Z,98163.19
2023-02-11T11:27:07.098Z,98148.03
2023-02-11T11:28:22.044Z,98147.75
2023-02-11T11:29:38.069Z,98144.59
2023-02-11T11:30:42.825Z,98148.28
2023-02-11T11:32:05.580Z,98142.44
2023-02-11T11:33:20.999Z,98144.03
2023-02-11T11:34:29.881Z,98139.22
2023-02-11T11:35:33.194Z,98132.84
2023-02-11T11:36:38.076Z,98134.41
2023-02-11T11:37:39.718Z,98129.41
2023-02-11T11:38:50.390Z,98134.16
2023-02-11T11:40:09.747Z,98132.34
2023-02-11T11:41:22.616Z,98141.06
2023-02-11T11:42:29.900Z,98130.69
2023-02-11T11:43:31.995Z,98129.09
2023-02-11T11:44:38.476Z,98133.91
2023-02-11T11:45:52.976Z,98130.69
2023-02-11T11:47:13.543Z,98129.41
2023-02-11T11:48:34.355Z,98124.91
2023-02-11T11:49:51.154Z,98121.72
2023-02-11T11:51:02.060Z,98118.25
2023-02-11T11:52:56.453Z,98112.16
2023-02-11T11:54:03.081Z,98112.16
2023-02-11T11:55:13.236Z,98112.44
2023-02-11T11:56:19.924Z,98116.94
2023-02-11T11:57:28.326Z,98114.81
2023-02-11T11:58:32.259Z,98111.09
2023-02-11T11:59:33.806Z,98104.97
2023-02-11T12:00:47.502Z,98106.31
2023-02-11T12:02:08.496Z,98111.34
2023-02-11T12:03:40.807Z,98105.78
2023-02-11T12:05:02.946Z,98107.38
2023-02-11T12:06:19.771Z,98102.31
2023-02-11T12:07:26.848Z,98104.16
2023-02-11T12:08:50.155Z,98103.66
2023-02-11T12:10:19.602Z,98103.34
2023-02-11T12:11:34.738Z,98096.72
2023-02-11T12:13:10.335Z,98086.06
2023-02-11T12:14:49.529Z,98089.78
2023-02-11T12:16:03.028Z,98085.81
2023-02-11T12:17:22.410Z,98084.44
2023-02-11T12:18:38.173Z,98083.66
2023-02-11T12:20:10.138Z,98072.75
2023-02-11T12:21:31.831Z,98077.31
2023-02-11T12:22:47.400Z,98076.50
2023-02-11T12:24:10.894Z,98077.56
2023-02-11T12:25:39.710Z,98075.19
2023-02-11T12:26:49.616Z,98072.53
2023-02-11T12:28:15.307Z,98066.13
2023-02-11T12:29:36.994Z,98058.69
2023-02-11T12:30:53.562Z,98060.06
2023-02-11T12:32:17.906Z,98060.03
2023-02-11T12:33:42.059Z,98059.22
2023-02-11T12:35:02.091Z,98057.34
2023-02-11T12:36:20.696Z,98052.00
2023-02-11T12:37:33.054Z,98052.25
2023-02-11T12:38:38.021Z,98047.72
2023-02-11T12:39:42.282Z,98046.13
2023-02-11T12:41:05.327Z,98033.88
2023-02-11T12:42:37.598Z,98040.84
2023-02-11T12:43:44.486Z,98030.44
2023-02-11T12:44:55.849Z,98039.22
2023-02-11T12:46:31.291Z,98037.34
2023-02-11T12:47:56.531Z,98029.59
2023-02-11T12:49:31.061Z,98036.00
2023-02-11T12:50:44.622Z,98035.44
2023-02-11T12:52:04.518Z,98030.13
2023-02-11T12:53:26.671Z,98033.56
2023-02-11T12:54:47.736Z,98029.56
2023-02-11T12:55:56.148Z,98015.25
2023-02-11T12:57:15.682Z,98023.22
2023-02-11T12:58:25.444Z,98018.19
2023-02-11T12:59:56.711Z,98022.16
2023-02-11T13:01:06.251Z,98013.06